createdAt,value
2018-01-20T00:01:37.057Z,13.30
2018-01-20T00:04:03.271Z,13.33
2018-01-20T00:06:29.604Z,14.07
2018-01-20T00:08:55.888Z,10.20
2018-01-20T00:11:34.644Z,17.20
2018-01-20T00:14:01.572Z,22.97
2018-01-20T00:16:27.838Z,18.63
2018-01-20T00:18:54.019Z,15.43
2018-01-20T00:21:20.994Z,13.60
2018-01-20T00:23:47.919Z,19.23
2018-01-20T00:29:15.635Z,15.97
2018-01-20T00:31:41.856Z,17.63
2018-01-20T00:34:08.819Z,12.37
2018-01-20T00:36:35.055Z,10.53
2018-01-20T00:39:01.235Z,11.00
2018-01-20T00:41:28.154Z,24.63
2018-01-20T00:43:54.375Z,11.07
2018-01-20T00:46:20.555Z,11.07
2018-01-20T00:48:47.519Z,12.43
2018-01-20T00:51:13.695Z,6.43
2018-01-20T00:53:39.927Z,7.43
2018-01-20T00:56:06.114Z,6.60
2018-01-20T00:58:32.375Z,13.70
2018-01-20T01:00:58.551Z,17.23
2018-01-20T01:03:25.468Z,10.53
2018-01-20T01:05:51.744Z,17.57
2018-01-20T01:08:18.680Z,12.97
2018-01-20T01:10:44.855Z,14.30
2018-01-20T01:13:11.131Z,21.03
2018-01-20T01:15:38.095Z,13.40
2018-01-20T01:18:04.330Z,12.73
2018-01-20T01:20:30.511Z,23.17
2018-01-20T01:22:57.435Z,20.70
2018-01-20T01:25:23.661Z,26.23
2018-01-20T01:27:49.962Z,69.63
2018-01-20T01:30:16.188Z,64.03
2018-01-20T01:32:42.362Z,321.50
2018-01-20T01:35:08.607Z,198.60
2018-01-20T01:37:35.531Z,160.67
2018-01-20T01:40:01.762Z,272.73
2018-01-20T01:42:28.260Z,255.53
2018-01-20T01:44:54.612Z,131.00
2018-01-20T01:47:20.798Z,108.03
2018-01-20T01:49:47.014Z,241.40
2018-01-20T01:52:14.029Z,335.60
2018-01-20T01:54:40.187Z,213.90
2018-01-20T01:57:07.155Z,171.30
2018-01-20T01:59:33.754Z,219.67
2018-01-20T02:01:59.993Z,311.07
2018-01-20T02:04:26.906Z,221.03
2018-01-20T02:06:53.135Z,409.20
2018-01-20T02:09:20.085Z,309.83
2018-01-20T02:11:47.643Z,215.37
2018-01-20T02:14:14.259Z,278.33
2018-01-20T02:16:41.021Z,299.70
2018-01-20T02:19:07.371Z,442.43
2018-01-20T02:21:33.563Z,335.83
2018-01-20T02:23:59.803Z,333.27
2018-01-20T02:26:26.323Z,373.03
2018-01-20T02:28:52.549Z,216.80
2018-01-20T02:31:25.899Z,264.37
2018-01-20T02:33:52.831Z,431.03
2018-01-20T02:36:19.108Z,221.17
2018-01-20T02:38:45.286Z,273.27
2018-01-20T02:41:11.512Z,277.03
2018-01-20T02:43:37.695Z,210.93
2018-01-20T02:46:03.920Z,221.77
2018-01-20T02:48:30.099Z,141.40
2018-01-20T02:50:56.319Z,244.27
2018-01-20T02:53:22.495Z,186.70
2018-01-20T02:55:49.470Z,204.50
2018-01-20T02:58:15.666Z,223.07
2018-01-20T03:00:42.586Z,223.87
2018-01-20T03:03:08.811Z,109.67
2018-01-20T03:05:35.035Z,71.00
2018-01-20T03:08:01.256Z,84.73
2018-01-20T03:10:27.435Z,27.80
2018-01-20T03:12:54.522Z,72.47
2018-01-20T03:15:20.828Z,100.43
2018-01-20T03:17:47.035Z,54.10
2018-01-20T03:20:13.990Z,61.30
2018-01-20T03:22:40.175Z,21.60
2018-01-20T03:25:06.383Z,3.90
2018-01-20T03:27:32.564Z,4.53
2018-01-20T03:29:59.511Z,56.30
2018-01-20T03:32:26.435Z,56.87
2018-01-20T03:34:52.703Z,105.80
2018-01-20T03:37:18.872Z,25.73
2018-01-20T03:39:45.051Z,69.40
2018-01-20T03:42:11.999Z,62.73
2018-01-20T03:44:38.235Z,80.63
2018-01-20T03:47:04.416Z,70.47
2018-01-20T03:49:30.914Z,86.87
2018-01-20T03:51:57.118Z,28.73
2018-01-20T03:54:24.035Z,160.13
2018-01-20T03:56:51.087Z,169.70
2018-01-20T03:59:17.268Z,169.93
2018-01-20T04:01:43.447Z,32.07
2018-01-20T04:04:09.659Z,146.37
2018-01-20T04:06:35.834Z,41.87
2018-01-20T04:09:02.062Z,159.27
2018-01-20T04:11:28.727Z,65.77
2018-01-20T04:13:54.935Z,151.57
2018-01-20T04:16:21.107Z,96.00
2018-01-20T04:18:47.319Z,105.53
2018-01-20T04:21:13.494Z,115.13
2018-01-20T04:23:40.443Z,57.23
2018-01-20T04:26:07.367Z,140.03
2018-01-20T04:28:33.598Z,95.90
2018-01-20T04:30:59.783Z,102.90
2018-01-20T04:33:25.994Z,105.57
2018-01-20T04:35:52.199Z,153.03
2018-01-20T04:38:19.115Z,90.93
2018-01-20T04:40:45.323Z,76.20
2018-01-20T04:43:11.519Z,124.43
2018-01-20T04:45:37.736Z,58.57
2018-01-20T04:48:04.661Z,66.87
2018-01-20T04:50:30.871Z,104.30
2018-01-20T04:52:57.059Z,96.70
2018-01-20T04:55:23.297Z,108.30
2018-01-20T04:57:49.491Z,145.83
2018-01-20T05:00:16.459Z,141.63
2018-01-20T05:02:42.635Z,115.27
2018-01-20T05:05:08.883Z,101.87
2018-01-20T05:07:35.095Z,101.80
2018-01-20T05:10:01.272Z,111.70
2018-01-20T05:12:27.493Z,109.60
2018-01-20T05:14:54.412Z,181.40
2018-01-20T05:17:20.623Z,244.47
2018-01-20T05:19:46.803Z,198.37
2018-01-20T05:22:13.332Z,209.17
2018-01-20T05:24:39.515Z,118.57
2018-01-20T05:27:05.699Z,134.20
2018-01-20T05:29:31.907Z,38.30
2018-01-20T05:31:58.858Z,73.87
2018-01-20T05:34:25.071Z,72.10
2018-01-20T05:36:51.992Z,169.07
2018-01-20T05:39:18.195Z,146.07
2018-01-20T05:41:44.376Z,132.17
2018-01-20T05:44:11.341Z,161.03
2018-01-20T05:46:37.595Z,102.37
2018-01-20T05:49:03.803Z,135.30
2018-01-20T05:51:29.979Z,91.53
2018-01-20T05:53:56.187Z,28.50
2018-01-20T05:56:22.367Z,45.93
2018-01-20T05:58:49.286Z,106.10
2018-01-20T06:01:15.501Z,111.67
2018-01-20T06:03:42.022Z,222.23
2018-01-20T06:06:08.239Z,193.63
2018-01-20T06:08:34.419Z,67.90
2018-01-20T06:11:00.626Z,131.23
2018-01-20T06:13:26.943Z,79.20
2018-01-20T06:15:53.155Z,110.97
2018-01-20T06:18:19.339Z,41.87
2018-01-20T06:20:45.739Z,19.30
2018-01-20T06:23:11.919Z,23.70
2018-01-20T06:25:38.839Z,36.63
2018-01-20T06:28:05.055Z,17.13
2018-01-20T06:30:31.271Z,22.13
2018-01-20T06:32:57.475Z,25.20
2018-01-20T06:35:23.660Z,32.17
2018-01-20T06:37:49.867Z,22.77
2018-01-20T06:40:16.047Z,29.27
2018-01-20T06:42:42.255Z,35.43
2018-01-20T06:45:09.175Z,29.80
2018-01-20T06:47:35.388Z,41.80
2018-01-20T06:50:01.600Z,73.17
2018-01-20T06:52:27.842Z,163.83
2018-01-20T06:54:54.021Z,209.67
2018-01-20T06:57:20.235Z,282.23
2018-01-20T06:59:46.442Z,276.17
2018-01-20T07:02:12.619Z,291.10
2018-01-20T07:04:38.847Z,295.57
2018-01-20T07:07:05.031Z,315.00
2018-01-20T07:09:31.248Z,319.90
2018-01-20T07:11:57.427Z,299.77
2018-01-20T07:14:24.763Z,346.83
2018-01-20T07:16:50.976Z,372.10
2018-01-20T07:19:17.187Z,393.73
2018-01-20T07:21:43.398Z,440.83
2018-01-20T07:24:09.627Z,403.73
2018-01-20T07:26:35.806Z,344.10
2018-01-20T07:29:01.983Z,321.20
2018-01-20T07:31:28.225Z,187.13
2018-01-20T07:33:54.440Z,294.87
2018-01-20T07:36:20.655Z,237.50
2018-01-20T07:38:46.832Z,271.33
2018-01-20T07:41:13.826Z,186.20
2018-01-20T07:43:40.008Z,167.13
2018-01-20T07:46:07.675Z,106.83
2018-01-20T07:48:33.886Z,247.10
2018-01-20T07:51:00.107Z,242.80
2018-01-20T07:53:26.287Z,222.03
2018-01-20T07:55:53.208Z,328.43
2018-01-20T07:58:19.419Z,255.17
2018-01-20T08:00:45.682Z,289.07
2018-01-20T08:03:12.614Z,294.07
2018-01-20T08:05:38.799Z,315.80
2018-01-20T08:08:05.007Z,356.27
2018-01-20T08:10:31.183Z,299.80
2018-01-20T08:12:57.399Z,352.67
2018-01-20T08:15:23.579Z,228.67
2018-01-20T08:17:50.535Z,176.27
2018-01-20T08:20:17.475Z,201.10
2018-01-20T08:22:44.451Z,127.63
2018-01-20T08:25:10.631Z,288.23
2018-01-20T08:27:36.807Z,163.07
2018-01-20T08:30:03.051Z,185.00
2018-01-20T08:32:29.231Z,216.83
2018-01-20T08:34:56.183Z,47.87
2018-01-20T08:37:22.442Z,93.47
2018-01-20T08:39:48.646Z,30.83
2018-01-20T08:42:14.823Z,21.17
2018-01-20T08:44:41.035Z,19.23
2018-01-20T08:47:07.243Z,14.47
2018-01-20T08:49:33.447Z,29.90
2018-01-20T08:52:00.434Z,23.53
2018-01-20T08:54:26.621Z,19.47
2018-01-20T08:56:53.575Z,22.23
2018-01-20T08:59:19.815Z,21.70
2018-01-20T09:01:46.023Z,62.97
2018-01-20T09:04:12.947Z,64.10
2018-01-20T09:06:39.187Z,33.60
2018-01-20T09:09:05.367Z,23.33
2018-01-20T09:11:31.548Z,28.53
2018-01-20T09:13:58.499Z,22.03
2018-01-20T09:16:25.419Z,21.33
2018-01-20T09:18:51.627Z,21.47
2018-01-20T09:21:17.808Z,18.10
2018-01-20T09:23:44.296Z,22.10
2018-01-20T09:26:10.507Z,15.30
2018-01-20T09:28:36.682Z,16.03
2018-01-20T09:31:02.923Z,19.77
2018-01-20T09:33:29.939Z,17.00
2018-01-20T09:35:56.117Z,11.90
2018-01-20T09:38:22.339Z,16.43
2018-01-20T09:40:49.259Z,13.13
2018-01-20T09:43:15.436Z,14.93
2018-01-20T09:45:41.646Z,15.37
2018-01-20T09:48:08.020Z,9.60
2018-01-20T09:50:34.204Z,10.83
2018-01-20T09:53:01.123Z,10.70
2018-01-20T09:55:27.334Z,8.60
2018-01-20T09:57:53.575Z,7.30
2018-01-20T10:00:19.784Z,8.23
2018-01-20T10:02:45.982Z,7.90
2018-01-20T10:05:12.186Z,10.93
2018-01-20T10:07:39.102Z,8.13
2018-01-20T10:10:05.335Z,13.13
2018-01-20T10:12:33.003Z,12.00
2018-01-20T10:14:59.178Z,8.80
2018-01-20T10:17:25.379Z,14.30
2018-01-20T10:19:52.299Z,16.60
2018-01-20T10:22:18.509Z,10.10
2018-01-20T10:24:44.687Z,9.20
2018-01-20T10:27:11.634Z,12.77
2018-01-20T10:29:38.551Z,12.40
2018-01-20T10:32:04.791Z,10.77
2018-01-20T10:34:31.723Z,17.30
2018-01-20T10:36:58.674Z,11.93
2018-01-20T10:39:24.859Z,11.53
2018-01-20T10:41:51.071Z,14.07
2018-01-20T10:44:17.566Z,10.50
2018-01-20T10:46:43.800Z,13.10
2018-01-20T10:49:10.723Z,13.20
2018-01-20T10:51:36.898Z,11.37
2018-01-20T10:54:03.116Z,14.53
2018-01-20T10:56:30.040Z,14.10
2018-01-20T10:58:56.247Z,11.80
2018-01-20T11:01:22.422Z,19.73
2018-01-20T11:03:48.639Z,15.27
2018-01-20T11:06:15.575Z,9.73
2018-01-20T11:08:41.783Z,14.27
2018-01-20T11:11:08.442Z,19.13
2018-01-20T11:13:34.651Z,12.33
2018-01-20T11:16:00.831Z,13.00
2018-01-20T11:18:27.199Z,12.10
2018-01-20T11:20:53.715Z,15.23
2018-01-20T11:23:19.891Z,13.87
2018-01-20T11:25:46.107Z,10.17
2018-01-20T11:28:12.291Z,11.00
2018-01-20T11:30:38.532Z,10.90
2018-01-20T11:33:04.711Z,9.83
2018-01-20T11:35:30.966Z,7.43
2018-01-20T11:37:57.895Z,6.93
2018-01-20T11:40:24.838Z,10.10
2018-01-20T11:42:51.023Z,8.47
2018-01-20T11:45:17.227Z,9.77
2018-01-20T11:47:43.503Z,10.80
2018-01-20T11:50:09.722Z,8.87
2018-01-20T11:52:35.935Z,9.27
2018-01-20T11:55:02.152Z,9.13
2018-01-20T11:57:28.367Z,7.23
2018-01-20T11:59:54.737Z,8.30
2018-01-20T12:02:20.931Z,9.40
2018-01-20T12:04:47.171Z,12.40
2018-01-20T12:07:13.403Z,7.00
2018-01-20T12:09:39.587Z,7.70
2018-01-20T12:12:06.535Z,7.30
2018-01-20T12:14:33.455Z,7.23
2018-01-20T12:16:59.662Z,9.87
2018-01-20T12:19:25.863Z,7.57
2018-01-20T12:21:52.090Z,7.40
2018-01-20T12:24:18.292Z,7.33
2018-01-20T12:26:45.286Z,6.70
2018-01-20T12:29:11.482Z,8.47
2018-01-20T12:31:38.468Z,8.90
2018-01-20T12:34:04.702Z,14.10
2018-01-20T12:36:31.149Z,8.23
2018-01-20T12:38:57.714Z,8.27
2018-01-20T12:41:23.919Z,4.57
2018-01-20T12:43:50.151Z,9.20
2018-01-20T12:46:16.347Z,7.27
2018-01-20T12:48:42.599Z,7.23
2018-01-20T12:51:08.815Z,6.60
2018-01-20T12:53:34.999Z,5.40
2018-01-20T12:56:01.962Z,5.00
2018-01-20T12:58:28.143Z,5.30
2018-01-20T13:00:54.355Z,4.60
2018-01-20T13:03:20.535Z,7.20
2018-01-20T13:05:47.487Z,6.10
2018-01-20T13:08:13.683Z,5.20
2018-01-20T13:10:40.227Z,4.87
2018-01-20T13:13:07.155Z,6.10
2018-01-20T13:15:33.367Z,8.90
2018-01-20T13:17:59.562Z,6.00
2018-01-20T13:20:25.746Z,10.43
2018-01-20T13:22:51.956Z,8.03
2018-01-20T13:25:18.134Z,6.03
2018-01-20T13:27:45.083Z,12.83
2018-01-20T13:30:12.017Z,5.53
2018-01-20T13:32:39.359Z,8.77
2018-01-20T13:35:05.539Z,5.57
2018-01-20T13:37:31.742Z,10.60
2018-01-20T13:39:58.668Z,12.43
2018-01-20T13:42:24.875Z,5.20
2018-01-20T13:44:51.051Z,3.57
2018-01-20T13:47:17.519Z,7.20
2018-01-20T13:49:43.695Z,5.00
2018-01-20T13:52:10.615Z,6.03
2018-01-20T13:54:36.831Z,7.23
2018-01-20T13:57:03.011Z,5.90
2018-01-20T13:59:29.219Z,9.90
2018-01-20T14:01:56.139Z,10.90
2018-01-20T14:04:22.351Z,6.30
2018-01-20T14:06:48.532Z,11.33
2018-01-20T14:09:15.487Z,8.40
2018-01-20T14:11:42.407Z,13.13
2018-01-20T14:14:09.363Z,10.67
2018-01-20T14:16:36.287Z,9.43
2018-01-20T14:19:02.779Z,5.57
2018-01-20T14:21:28.971Z,11.67
2018-01-20T14:23:55.918Z,7.07
2018-01-20T14:26:22.835Z,7.10
2018-01-20T14:28:49.046Z,7.43
2018-01-20T14:31:15.219Z,6.70
2018-01-20T14:33:42.246Z,9.40
2018-01-20T14:36:08.430Z,7.60
2018-01-20T14:38:34.619Z,6.83
2018-01-20T14:41:01.603Z,11.43
2018-01-20T14:43:27.780Z,5.33
2018-01-20T14:45:53.991Z,5.07
2018-01-20T14:48:20.181Z,5.43
2018-01-20T14:50:46.391Z,4.67
2018-01-20T14:53:12.600Z,8.80
2018-01-20T14:55:38.827Z,13.10
2018-01-20T14:58:05.011Z,13.00
2018-01-20T15:00:31.264Z,6.93
2018-01-20T15:02:57.459Z,22.10
2018-01-20T15:05:23.672Z,13.73
2018-01-20T15:07:49.855Z,7.30
2018-01-20T15:10:16.099Z,6.17
2018-01-20T15:12:42.288Z,8.80
2018-01-20T15:15:08.512Z,14.17
2018-01-20T15:17:34.711Z,7.13
2018-01-20T15:20:01.638Z,8.43
2018-01-20T15:22:27.847Z,9.93
2018-01-20T15:24:54.054Z,5.33
2018-01-20T15:27:20.576Z,6.97
2018-01-20T15:29:46.760Z,12.83
2018-01-20T15:32:13.740Z,7.30
2018-01-20T15:34:39.968Z,12.50
2018-01-20T15:37:06.175Z,19.70
2018-01-20T15:39:33.088Z,34.07
2018-01-20T15:41:59.299Z,24.97
2018-01-20T15:44:25.513Z,22.50
2018-01-20T15:46:51.719Z,32.67
2018-01-20T15:49:17.929Z,28.40
2018-01-20T15:51:44.986Z,21.47
2018-01-20T15:54:11.918Z,29.93
2018-01-20T15:56:38.213Z,25.57
2018-01-20T15:59:04.379Z,33.80
2018-01-20T16:01:31.332Z,44.47
2018-01-20T16:03:58.255Z,15.30
2018-01-20T16:06:24.470Z,19.07
2018-01-20T16:08:50.655Z,20.17
2018-01-20T16:11:16.919Z,13.97
2018-01-20T16:13:43.102Z,18.40
2018-01-20T16:16:10.051Z,17.00
2018-01-20T16:18:37.046Z,20.17
2018-01-20T16:21:03.274Z,13.50
2018-01-20T16:23:29.446Z,12.70
2018-01-20T16:25:56.440Z,11.10
2018-01-20T16:28:22.626Z,13.80
2018-01-20T16:30:49.547Z,12.10
2018-01-20T16:33:16.219Z,10.57
2018-01-20T16:35:42.401Z,12.70
2018-01-20T16:38:08.613Z,15.33
2018-01-20T16:40:34.803Z,11.57
2018-01-20T16:43:01.014Z,11.60
2018-01-20T16:45:27.939Z,13.83
2018-01-20T16:47:54.149Z,10.43
2018-01-20T16:50:20.328Z,18.03
2018-01-20T16:52:47.317Z,8.93
2018-01-20T16:55:13.507Z,9.87
2018-01-20T16:57:39.773Z,12.57
2018-01-20T17:00:05.998Z,20.23
2018-01-20T17:02:32.258Z,16.33
2018-01-20T17:04:59.176Z,20.93
2018-01-20T17:07:25.433Z,19.57
2018-01-20T17:09:51.638Z,21.57
2018-01-20T17:12:17.862Z,34.53
2018-01-20T17:14:44.135Z,36.27
2018-01-20T17:17:11.056Z,25.00
2018-01-20T17:19:37.267Z,17.17
2018-01-20T17:22:03.484Z,32.27
2018-01-20T17:24:29.831Z,17.70
2018-01-20T17:26:56.053Z,20.80
2018-01-20T17:29:22.262Z,25.50
2018-01-20T17:31:48.512Z,36.00
2018-01-20T17:34:14.719Z,22.60
2018-01-20T17:36:40.941Z,24.43
2018-01-20T17:39:07.124Z,27.27
2018-01-20T17:41:33.328Z,28.40
2018-01-20T17:43:59.508Z,20.23
2018-01-20T17:46:26.800Z,14.70
2018-01-20T17:48:52.987Z,20.23
2018-01-20T17:51:19.959Z,22.90
2018-01-20T17:53:46.206Z,13.10
2018-01-20T17:56:12.444Z,16.00
2018-01-20T17:58:38.623Z,18.03
2018-01-20T18:01:12.751Z,15.13
2018-01-20T18:03:39.671Z,13.53
2018-01-20T18:06:06.155Z,16.07
2018-01-20T18:08:32.405Z,12.63
2018-01-20T18:10:58.580Z,13.20
2018-01-20T18:13:25.578Z,15.23
2018-01-20T18:15:51.751Z,14.87
2018-01-20T18:18:18.763Z,35.80
2018-01-20T18:20:44.951Z,13.10
2018-01-20T18:23:11.906Z,17.33
2018-01-20T18:25:38.124Z,19.67
2018-01-20T18:28:04.335Z,14.67
2018-01-20T18:30:31.306Z,18.07
2018-01-20T18:32:57.547Z,24.47
2018-01-20T18:35:23.782Z,47.03
2018-01-20T18:37:49.990Z,72.73
2018-01-20T18:40:16.336Z,62.33
2018-01-20T18:42:42.538Z,71.30
2018-01-20T18:45:08.747Z,73.80
2018-01-20T18:47:35.698Z,69.53
2018-01-20T18:50:02.631Z,31.20
2018-01-20T18:52:28.840Z,9.37
2018-01-20T18:54:55.028Z,14.67
2018-01-20T18:57:21.277Z,13.93
2018-01-20T18:59:47.533Z,14.60
2018-01-20T19:02:14.558Z,14.83
2018-01-20T19:04:40.735Z,11.27
2018-01-20T19:07:07.698Z,9.77
2018-01-20T19:09:33.929Z,12.77
2018-01-20T19:12:00.298Z,10.60
2018-01-20T19:14:26.491Z,11.17
2018-01-20T19:16:52.672Z,7.43
2018-01-20T19:19:18.891Z,14.70
2018-01-20T19:21:45.134Z,10.10
2018-01-20T19:24:11.672Z,15.63
2018-01-20T19:26:38.712Z,13.90
2018-01-20T19:29:04.986Z,10.00
2018-01-20T19:31:32.054Z,8.57
2018-01-20T19:33:58.320Z,16.33
2018-01-20T19:36:24.498Z,11.03
2018-01-20T19:38:50.753Z,18.00
2018-01-20T19:41:16.934Z,24.33
2018-01-20T19:43:43.883Z,23.37
2018-01-20T19:46:10.811Z,21.00
2018-01-20T19:48:37.139Z,20.13
2018-01-20T19:51:04.158Z,26.03
2018-01-20T19:53:30.821Z,20.83
2018-01-20T19:55:57.814Z,12.60
2018-01-20T19:58:24.099Z,19.63
2018-01-20T20:00:51.214Z,14.90
2018-01-20T20:03:17.482Z,19.00
2018-01-20T20:05:43.705Z,19.30
2018-01-20T20:08:09.946Z,15.10
2018-01-20T20:10:36.246Z,12.50
2018-01-20T20:13:02.423Z,9.87
2018-01-20T20:15:29.426Z,17.43
2018-01-20T20:17:55.598Z,12.97
2018-01-20T20:20:22.587Z,14.80
2018-01-20T20:22:48.818Z,12.13
2018-01-20T20:25:15.103Z,32.33
2018-01-20T20:27:42.150Z,28.67
2018-01-20T20:30:09.128Z,32.00
2018-01-20T20:32:35.382Z,23.07
2018-01-20T20:35:01.664Z,17.43
2018-01-20T20:37:28.686Z,20.77
2018-01-20T20:39:55.823Z,16.73
2018-01-20T20:42:22.111Z,18.57
2018-01-20T20:44:48.340Z,39.70
2018-01-20T20:47:14.595Z,37.10
2018-01-20T20:49:40.826Z,25.97
2018-01-20T20:52:07.162Z,35.63
2018-01-20T20:54:33.479Z,30.63
2018-01-20T20:57:00.262Z,29.10
2018-01-20T20:59:27.923Z,39.93
2018-01-20T21:01:54.163Z,32.27
2018-01-20T21:04:20.438Z,22.17
2018-01-20T21:06:46.776Z,19.73
2018-01-20T21:09:13.010Z,19.63
2018-01-20T21:11:39.407Z,22.30
2018-01-20T21:14:06.415Z,20.50
2018-01-20T21:16:32.719Z,14.93
2018-01-20T21:18:58.927Z,26.63
2018-01-20T21:21:25.155Z,13.70
2018-01-20T21:23:51.419Z,19.80
2018-01-20T21:26:17.655Z,13.53
2018-01-20T21:28:43.915Z,17.60
2018-01-20T21:31:10.147Z,47.17
2018-01-20T21:33:37.314Z,29.13
2018-01-20T21:36:04.274Z,24.33
2018-01-20T21:38:30.447Z,20.60
2018-01-20T21:40:56.655Z,25.03
2018-01-20T21:43:22.891Z,22.93
2018-01-20T21:45:49.151Z,29.50
2018-01-20T21:48:15.331Z,30.77
2018-01-20T21:50:41.694Z,32.70
2018-01-20T21:53:07.867Z,26.63
2018-01-20T21:55:34.870Z,31.53
2018-01-20T21:58:01.119Z,24.10
2018-01-20T22:00:27.330Z,25.33
2018-01-20T22:02:53.519Z,26.67
2018-01-20T22:05:19.858Z,25.77
2018-01-20T22:07:46.081Z,33.20
2018-01-20T22:10:12.450Z,31.27
2018-01-20T22:12:38.705Z,36.33
2018-01-20T22:15:05.835Z,40.97
2018-01-20T22:17:32.066Z,28.30
2018-01-20T22:19:58.289Z,25.53
2018-01-20T22:22:24.495Z,23.13
2018-01-20T22:24:50.746Z,31.30
2018-01-20T22:27:16.984Z,30.67
2018-01-20T22:29:43.666Z,28.83
2018-01-20T22:32:09.922Z,27.43
2018-01-20T22:34:36.099Z,23.00
2018-01-20T22:37:03.101Z,24.23
2018-01-20T22:39:29.359Z,27.40
2018-01-20T22:41:55.614Z,24.83
2018-01-20T22:44:22.534Z,31.13
2018-01-20T22:46:48.855Z,26.80
2018-01-20T22:49:15.048Z,29.47
2018-01-20T22:51:41.269Z,29.10
2018-01-20T22:54:07.475Z,32.17
2018-01-20T22:56:41.415Z,31.80
2018-01-20T22:59:07.623Z,27.63
2018-01-20T23:01:34.595Z,25.30
2018-01-20T23:04:00.802Z,37.20
2018-01-20T23:06:26.983Z,31.80
2018-01-20T23:08:53.191Z,32.20
2018-01-20T23:11:19.371Z,32.73
2018-01-20T23:13:46.326Z,38.43
2018-01-20T23:16:13.255Z,37.13
2018-01-20T23:18:39.467Z,31.50
2018-01-20T23:21:05.730Z,41.60
2018-01-20T23:23:32.931Z,67.73
2018-01-20T23:25:59.099Z,98.03
2018-01-20T23:28:26.014Z,55.43
2018-01-20T23:30:52.236Z,43.87
2018-01-20T23:33:18.484Z,51.77
2018-01-20T23:35:44.694Z,50.80
2018-01-20T23:38:10.866Z,46.20
2018-01-20T23:40:37.877Z,36.83
2018-01-20T23:43:04.059Z,36.67
2018-01-20T23:45:30.269Z,37.70
2018-01-20T23:47:57.196Z,37.73
2018-01-20T23:50:23.400Z,39.47
2018-01-20T23:52:49.621Z,48.87
2018-01-20T23:55:15.856Z,43.53
2018-01-20T23:57:42.072Z,50.57
